Time;durP1;ratioP1;P1;durP2;ratioP2;P2;SDS_P1;SDS_P2;PMS_P1;PMS_P2;Temp;Humidity;BMP_temperature;BMP_pressure;BME280_temperature;BME280_humidity;BME280_pressure;Samples;Min_cycle;Max_cycle;Signal;HPM_P1;HPM_P2
2022/04/25 00:00:05;;;;;;;5.60;5.20;;;;;;;;;;5020116;28;20434;-83
2022/04/25 00:02:31;;;;;;;6.00;5.60;;;;;;;;;;5026641;28;20447;-83
2022/04/25 00:04:57;;;;;;;5.57;5.27;;;;;;;;;;5014215;28;20761;-83
2022/04/25 00:07:23;;;;;;;5.93;5.57;;;;;;;;;;5025686;28;20439;-82
2022/04/25 00:09:49;;;;;;;5.63;5.23;;;;;;;;;;5029479;28;20426;-83
2022/04/25 00:12:15;;;;;;;5.97;5.53;;;;;;;;;;5028246;28;20498;-83
2022/04/25 00:14:41;;;;;;;6.60;6.20;;;;;;;;;;5025673;28;20539;-83
2022/04/25 00:17:07;;;;;;;5.70;5.40;;;;;;;;;;5024467;28;20438;-83
2022/04/25 00:19:35;;;;;;;5.20;4.90;;;;;;;;;;5036408;28;20438;-83
2022/04/25 00:22:01;;;;;;;5.13;4.93;;;;;;;;;;5014754;28;20956;-84
2022/04/25 00:24:28;;;;;;;6.13;5.73;;;;;;;;;;5028295;28;20480;-82
2022/04/25 00:26:54;;;;;;;5.77;5.57;;;;;;;;;;5029049;28;20445;-83
2022/04/25 00:29:21;;;;;;;4.77;4.67;;;;;;;;;;5041020;28;21408;-84
2022/04/25 00:31:47;;;;;;;5.63;5.33;;;;;;;;;;5020998;28;20434;-85
2022/04/25 00:34:13;;;;;;;5.63;5.33;;;;;;;;;;5039360;28;20445;-83
2022/04/25 00:36:39;;;;;;;5.60;5.30;;;;;;;;;;5026629;28;20435;-83
2022/04/25 00:39:05;;;;;;;5.87;5.57;;;;;;;;;;5028293;28;20522;-82
2022/04/25 00:41:31;;;;;;;5.70;5.40;;;;;;;;;;5036398;28;20431;-83
2022/04/25 00:43:57;;;;;;;5.70;5.40;;;;;;;;;;5028140;28;20991;-83
2022/04/25 00:46:24;;;;;;;5.40;4.90;;;;;;;;;;5027047;28;20960;-83
2022/04/25 00:48:51;;;;;;;6.20;5.90;;;;;;;;;;5029486;28;20438;-83
2022/04/25 00:51:17;;;;;;;5.77;5.47;;;;;;;;;;5024214;28;20439;-83
2022/04/25 00:53:44;;;;;;;5.20;5.00;;;;;;;;;;5026686;28;20419;-83
2022/04/25 00:56:10;;;;;;;5.00;4.77;;;;;;;;;;5017889;28;20474;-84
2022/04/25 00:58:36;;;;;;;5.23;5.00;;;;;;;;;;5021921;28;20426;-83
2022/04/25 01:01:03;;;;;;;4.83;4.63;;;;;;;;;;5025511;28;20470;-82
2022/04/25 01:03:29;;;;;;;5.20;5.00;;;;;;;;;;5022673;28;21128;-83
2022/04/25 01:05:55;;;;;;;4.93;4.53;;;;;;;;;;5073153;23;20491;-80
2022/04/25 01:08:21;;;;;;;4.77;4.67;;;;;;;;;;4996495;28;20439;-79
2022/04/25 01:10:47;;;;;;;5.37;4.93;;;;;;;;;;5020584;28;20435;-79
2022/04/25 01:13:13;;;;;;;4.37;4.27;;;;;;;;;;5000830;28;20443;-79
2022/04/25 01:15:40;;;;;;;4.73;4.60;;;;;;;;;;4994634;28;20486;-78
2022/04/25 01:18:06;;;;;;;4.47;4.37;;;;;;;;;;4998075;28;20527;-79
2022/04/25 01:20:32;;;;;;;3.77;3.67;;;;;;;;;;4989872;28;20442;-80
2022/04/25 01:27:15;;;;;;;3.67;3.57;;;;;;;;;;5027375;28;20827;-80
2022/04/25 01:28:32;;;;;;;4.80;4.60;;;;;;;;;;5017504;28;20439;-80
2022/04/25 01:30:58;;;;;;;4.57;4.37;;;;;;;;;;4989980;28;20458;-81
2022/04/25 01:33:24;;;;;;;4.57;4.37;;;;;;;;;;5005293;28;20416;-81
2022/04/25 01:35:52;;;;;;;4.63;4.50;;;;;;;;;;5039882;23;20498;-90
2022/04/25 01:38:18;;;;;;;4.50;4.40;;;;;;;;;;5013851;28;20427;-92
2022/04/25 01:40:46;;;;;;;4.90;4.73;;;;;;;;;;5029463;28;20430;-91
2022/04/25 01:43:14;;;;;;;4.33;4.23;;;;;;;;;;4985504;28;20478;-93
2022/04/25 01:45:41;;;;;;;4.83;4.40;;;;;;;;;;4991767;28;20525;-91
2022/04/25 01:48:07;;;;;;;4.60;4.40;;;;;;;;;;5008528;28;20452;-92
2022/04/25 01:50:39;;;;;;;4.70;4.60;;;;;;;;;;5012070;28;20936;-91
2022/04/25 01:53:06;;;;;;;4.30;4.20;;;;;;;;;;5011626;28;20971;-92
2022/04/25 01:55:32;;;;;;;4.30;4.07;;;;;;;;;;4995536;28;20470;-92
2022/04/25 01:58:01;;;;;;;4.93;4.63;;;;;;;;;;5008051;28;20432;-92
2022/04/25 02:00:27;;;;;;;5.27;4.87;;;;;;;;;;4994108;28;20829;-92
2022/04/25 02:02:53;;;;;;;4.70;4.50;;;;;;;;;;4997370;28;20431;-92
2022/04/25 02:05:19;;;;;;;4.30;4.20;;;;;;;;;;4992533;28;20441;-92
2022/04/25 02:07:45;;;;;;;4.90;4.53;;;;;;;;;;5031594;28;20455;-91
2022/04/25 02:10:11;;;;;;;4.90;4.80;;;;;;;;;;5018897;28;20439;-92
2022/04/25 02:12:38;;;;;;;5.40;5.10;;;;;;;;;;5023530;28;20431;-91
2022/04/25 02:15:12;;;;;;;5.73;4.90;;;;;;;;;;4997728;28;20424;-91
2022/04/25 02:17:38;;;;;;;5.13;4.83;;;;;;;;;;5015155;28;20435;-92
2022/04/25 02:20:10;;;;;;;5.00;4.90;;;;;;;;;;5016595;28;20917;-91
2022/04/25 02:22:39;;;;;;;5.63;5.43;;;;;;;;;;5019999;28;20435;-92
2022/04/25 02:25:06;;;;;;;5.40;5.10;;;;;;;;;;5032029;28;20532;-93
2022/04/25 02:27:32;;;;;;;5.93;5.70;;;;;;;;;;4997777;28;20471;-92
2022/04/25 02:29:58;;;;;;;5.73;5.33;;;;;;;;;;5033750;28;20438;-92
2022/04/25 02:32:30;;;;;;;5.07;4.77;;;;;;;;;;4998020;28;20845;-91
2022/04/25 02:34:57;;;;;;;6.13;5.83;;;;;;;;;;5020999;28;20849;-91
2022/04/25 02:37:23;;;;;;;5.07;4.90;;;;;;;;;;5019682;28;20750;-92
2022/04/25 02:39:53;;;;;;;5.67;5.33;;;;;;;;;;5025954;28;20427;-92
2022/04/25 02:42:19;;;;;;;6.00;5.67;;;;;;;;;;5020701;28;20950;-92
2022/04/25 02:44:45;;;;;;;5.00;4.90;;;;;;;;;;5022530;28;21011;-92
2022/04/25 02:47:11;;;;;;;5.33;5.10;;;;;;;;;;5024456;28;20447;-92
2022/04/25 02:49:37;;;;;;;5.40;5.20;;;;;;;;;;5013031;28;20494;-91
2022/04/25 02:52:03;;;;;;;5.97;5.67;;;;;;;;;;5022162;28;20439;-92
2022/04/25 02:54:29;;;;;;;5.30;5.10;;;;;;;;;;5015747;28;20471;-92
2022/04/25 02:56:55;;;;;;;5.57;5.37;;;;;;;;;;5007907;28;20438;-93
2022/04/25 02:59:21;;;;;;;5.10;4.80;;;;;;;;;;5004548;28;20436;-91
2022/04/25 03:01:47;;;;;;;5.43;5.23;;;;;;;;;;5017026;28;20440;-91
2022/04/25 03:04:29;;;;;;;4.50;4.30;;;;;;;;;;5014506;28;21061;-91
2022/04/25 03:06:55;;;;;;;4.97;4.67;;;;;;;;;;5007476;28;20533;-93
2022/04/25 03:09:22;;;;;;;5.20;5.00;;;;;;;;;;4995568;28;20998;-93
2022/04/25 03:11:50;;;;;;;6.00;5.67;;;;;;;;;;5016834;28;20435;-93
2022/04/25 03:14:16;;;;;;;6.20;6.00;;;;;;;;;;4995256;28;20500;-92
2022/04/25 03:16:42;;;;;;;5.37;5.23;;;;;;;;;;5021756;28;20577;-93
2022/04/25 03:19:09;;;;;;;5.87;5.47;;;;;;;;;;5020609;28;20435;-93
2022/04/25 03:21:35;;;;;;;6.87;6.53;;;;;;;;;;5029793;28;20791;-92
2022/04/25 03:24:02;;;;;;;6.07;5.77;;;;;;;;;;5020264;28;20844;-92
2022/04/25 03:26:29;;;;;;;6.10;5.80;;;;;;;;;;5018212;28;20431;-94
2022/04/25 03:28:55;;;;;;;6.00;5.53;;;;;;;;;;5023829;28;20451;-92
2022/04/25 03:31:21;;;;;;;5.70;5.43;;;;;;;;;;5007956;28;20587;-92
2022/04/25 03:34:00;;;;;;;6.83;6.20;;;;;;;;;;5018481;28;20458;-92
2022/04/25 03:36:29;;;;;;;6.50;6.20;;;;;;;;;;5004567;28;20696;-92
2022/04/25 03:38:55;;;;;;;6.90;6.60;;;;;;;;;;5017928;28;20427;-92
2022/04/25 03:41:21;;;;;;;6.93;6.53;;;;;;;;;;5009855;28;20849;-91
2022/04/25 03:43:47;;;;;;;7.37;6.87;;;;;;;;;;5016158;28;20530;-92
2022/04/25 03:46:13;;;;;;;7.83;7.17;;;;;;;;;;5021691;28;20947;-92
2022/04/25 03:48:44;;;;;;;7.50;7.10;;;;;;;;;;5031016;28;20439;-91
2022/04/25 03:51:10;;;;;;;7.13;6.80;;;;;;;;;;5046921;28;20449;-92
2022/04/25 03:53:41;;;;;;;6.87;6.47;;;;;;;;;;5033206;28;20450;-92
2022/04/25 03:58:52;;;;;;;7.50;7.10;;;;;;;;;;4994974;28;20426;-92
2022/04/25 04:01:27;;;;;;;7.20;6.53;;;;;;;;;;5022794;28;20427;-92
2022/04/25 04:03:53;;;;;;;6.90;6.20;;;;;;;;;;5012392;28;20467;-93
2022/04/25 04:06:19;;;;;;;6.80;6.30;;;;;;;;;;5013547;28;20432;-92
2022/04/25 04:08:46;;;;;;;7.47;6.77;;;;;;;;;;5015787;28;20839;-92
2022/04/25 04:11:14;;;;;;;7.60;7.00;;;;;;;;;;5002224;28;20672;-91
2022/04/25 04:13:40;;;;;;;7.93;7.27;;;;;;;;;;5011015;28;21149;-91
2022/04/25 04:16:06;;;;;;;6.83;6.43;;;;;;;;;;5016096;28;20802;-91
2022/04/25 04:18:53;;;;;;;7.10;6.53;;;;;;;;;;5009955;28;20824;-91
2022/04/25 04:22:01;;;;;;;7.50;6.97;;;;;;;;;;5014609;28;20841;-91
2022/04/25 04:25:06;;;;;;;8.10;7.60;;;;;;;;;;5018607;28;20722;-92
2022/04/25 04:28:12;;;;;;;6.73;6.33;;;;;;;;;;5009216;28;20477;-92
2022/04/25 04:31:17;;;;;;;8.20;7.67;;;;;;;;;;5003344;28;20463;-92
2022/04/25 04:34:23;;;;;;;6.80;6.43;;;;;;;;;;5009019;28;20434;-91
2022/04/25 04:37:35;;;;;;;7.20;6.80;;;;;;;;;;5004488;28;20602;-91
2022/04/25 04:40:38;;;;;;;7.53;7.03;;;;;;;;;;5012456;28;20427;-91
2022/04/25 04:43:44;;;;;;;6.93;6.53;;;;;;;;;;5004828;28;20470;-92
2022/04/25 04:46:50;;;;;;;7.50;7.03;;;;;;;;;;5010948;28;20408;-92
2022/04/25 04:49:59;;;;;;;6.73;6.37;;;;;;;;;;5015038;28;20461;-92
2022/04/25 04:53:08;;;;;;;7.00;6.57;;;;;;;;;;5017095;28;20957;-91
2022/04/25 04:56:13;;;;;;;8.20;7.57;;;;;;;;;;5013573;28;20431;-92
2022/04/25 04:59:19;;;;;;;7.83;7.13;;;;;;;;;;5004334;28;20462;-92
2022/04/25 05:02:25;;;;;;;6.50;6.30;;;;;;;;;;5005859;28;20466;-90
2022/04/25 05:05:32;;;;;;;7.32;6.82;;;;;;;;;;4317952;28;10001487;-91
2022/04/25 05:08:37;;;;;;;6.17;5.87;;;;;;;;;;5006315;28;20209;-89
2022/04/25 05:11:43;;;;;;;7.70;7.20;;;;;;;;;;5008283;28;20415;-92
2022/04/25 05:14:49;;;;;;;8.10;7.60;;;;;;;;;;5010007;28;20932;-91
2022/04/25 05:17:35;;;;;;;7.40;6.90;;;;;;;;;;5002737;28;20957;-91
2022/04/25 05:20:01;;;;;;;8.00;7.60;;;;;;;;;;4991428;28;20436;-93
2022/04/25 05:22:50;;;;;;;6.20;5.97;;;;;;;;;;5016124;28;20452;-90
2022/04/25 05:25:54;;;;;;;6.73;6.30;;;;;;;;;;5005160;28;20439;-92
2022/04/25 05:29:00;;;;;;;7.17;6.63;;;;;;;;;;5007125;28;20420;-91
2022/04/25 05:32:06;;;;;;;6.87;6.47;;;;;;;;;;5006863;28;20442;-89
2022/04/25 05:35:12;;;;;;;7.70;7.10;;;;;;;;;;5019289;28;20438;-88
2022/04/25 05:38:18;;;;;;;7.00;6.60;;;;;;;;;;4997875;28;20447;-88
2022/04/25 05:41:26;;;;;;;6.23;5.73;;;;;;;;;;4997456;28;21279;-89
2022/04/25 05:44:29;;;;;;;7.40;6.87;;;;;;;;;;5014256;28;20484;-91
2022/04/25 05:47:35;;;;;;;6.20;5.80;;;;;;;;;;5002000;28;20431;-89
2022/04/25 05:53:47;;;;;;;7.30;6.90;;;;;;;;;;5006802;28;20473;-89
2022/04/25 05:56:53;;;;;;;7.17;6.77;;;;;;;;;;5009977;28;20541;-87
2022/04/25 05:59:59;;;;;;;6.33;6.13;;;;;;;;;;5012935;28;20499;-90
2022/04/25 06:03:05;;;;;;;7.73;7.10;;;;;;;;;;4993748;28;20468;-90
2022/04/25 06:06:11;;;;;;;5.90;5.60;;;;;;;;;;5000795;28;20440;-90
2022/04/25 06:09:19;;;;;;;7.73;7.33;;;;;;;;;;5001258;28;20594;-90
2022/04/25 06:12:22;;;;;;;8.13;7.63;;;;;;;;;;5010982;28;20430;-90
2022/04/25 06:15:30;;;;;;;6.87;6.37;;;;;;;;;;5006044;28;20431;-91
2022/04/25 06:18:34;;;;;;;6.53;6.23;;;;;;;;;;5006856;28;20423;-91
2022/04/25 06:21:40;;;;;;;7.47;6.70;;;;;;;;;;4995299;28;20511;-90
2022/04/25 06:24:46;;;;;;;19.53;6.90;;;;;;;;;;5001015;28;21224;-90
2022/04/25 06:27:52;;;;;;;8.07;7.60;;;;;;;;;;5009568;28;20983;-90
2022/04/25 06:30:58;;;;;;;7.43;7.03;;;;;;;;;;5008590;28;21023;-88
2022/04/25 06:34:04;;;;;;;7.47;6.87;;;;;;;;;;5001561;28;20724;-89
2022/04/25 06:37:09;;;;;;;8.23;7.53;;;;;;;;;;5002003;28;20467;-90
2022/04/25 06:40:15;;;;;;;9.47;8.77;;;;;;;;;;4991110;28;20446;-89
2022/04/25 06:43:21;;;;;;;7.83;7.43;;;;;;;;;;5001374;28;20557;-89
2022/04/25 06:46:29;;;;;;;8.93;8.13;;;;;;;;;;5006261;28;20452;-90
2022/04/25 06:49:33;;;;;;;9.50;8.70;;;;;;;;;;4998866;28;21131;-89
2022/04/25 06:52:39;;;;;;;10.33;9.40;;;;;;;;;;4999192;28;20477;-89
2022/04/25 06:55:45;;;;;;;10.03;9.23;;;;;;;;;;4997647;28;20447;-90
2022/04/25 06:58:52;;;;;;;13.50;12.13;;;;;;;;;;5005415;28;20758;-92
2022/04/25 07:01:58;;;;;;;16.83;14.90;;;;;;;;;;5018918;28;20426;-91
2022/04/25 07:05:06;;;;;;;17.90;16.13;;;;;;;;;;5006129;28;20744;-85
2022/04/25 07:08:09;;;;;;;17.60;16.03;;;;;;;;;;5028449;28;20453;-90
2022/04/25 07:11:31;;;;;;;20.13;18.03;;;;;;;;;;4997678;28;20440;-94
2022/04/25 07:14:40;;;;;;;20.03;18.03;;;;;;;;;;4993954;28;20469;-93
2022/04/25 07:17:46;;;;;;;19.60;17.70;;;;;;;;;;5013813;28;20440;-87
2022/04/25 07:20:51;;;;;;;21.27;19.17;;;;;;;;;;5009524;28;20439;-87
2022/04/25 07:30:07;;;;;;;21.10;18.93;;;;;;;;;;5003840;28;20442;-89
2022/04/25 07:33:16;;;;;;;20.80;18.80;;;;;;;;;;5016528;28;20439;-93
2022/04/25 07:36:24;;;;;;;20.87;18.97;;;;;;;;;;5036422;28;20460;-91
2022/04/25 07:39:30;;;;;;;21.27;19.17;;;;;;;;;;5043053;28;20433;-91
2022/04/25 07:42:42;;;;;;;20.30;18.27;;;;;;;;;;5009714;28;20436;-88
2022/04/25 07:45:45;;;;;;;20.70;17.33;;;;;;;;;;5032399;28;20434;-86
2022/04/25 07:48:51;;;;;;;19.77;17.77;;;;;;;;;;4670757;28;10000361;-92
2022/04/25 07:51:57;;;;;;;19.33;17.60;;;;;;;;;;5014855;28;20181;-91
2022/04/25 07:55:03;;;;;;;19.50;16.27;;;;;;;;;;5006073;28;20430;-88
2022/04/25 07:58:09;;;;;;;16.20;14.70;;;;;;;;;;5014078;28;20518;-92
2022/04/25 08:01:15;;;;;;;13.40;12.27;;;;;;;;;;5016721;28;20423;-90
2022/04/25 08:04:23;;;;;;;15.10;13.53;;;;;;;;;;5023078;28;20494;-87
2022/04/25 08:07:26;;;;;;;14.10;12.90;;;;;;;;;;5018711;28;20428;-91
2022/04/25 08:10:20;;;;;;;12.00;11.00;;;;;;;;;;5038856;28;20423;-91
2022/04/25 08:19:35;;;;;;;12.27;11.17;;;;;;;;;;5017247;28;20431;-92
2022/04/25 08:22:46;;;;;;;12.97;11.87;;;;;;;;;;5021995;28;20435;-92
2022/04/25 08:26:00;;;;;;;14.07;12.87;;;;;;;;;;5018156;28;20450;-91
2022/04/25 08:28:46;;;;;;;15.07;13.67;;;;;;;;;;5033620;23;20951;-85
2022/04/25 08:31:13;;;;;;;15.20;13.80;;;;;;;;;;5006698;28;20448;-84
2022/04/25 08:33:42;;;;;;;15.90;14.27;;;;;;;;;;5017007;28;20952;-84
2022/04/25 08:36:08;;;;;;;16.43;14.97;;;;;;;;;;5021240;28;20511;-85
2022/04/25 08:38:34;;;;;;;15.77;14.33;;;;;;;;;;5028009;28;20442;-81
2022/04/25 08:41:01;;;;;;;18.50;16.60;;;;;;;;;;5031477;28;20428;-80
2022/04/25 08:43:30;;;;;;;18.47;16.77;;;;;;;;;;5027101;28;20508;-80
2022/04/25 08:45:56;;;;;;;18.20;16.40;;;;;;;;;;5028573;28;20426;-80
2022/04/25 08:48:24;;;;;;;19.10;17.30;;;;;;;;;;5024699;28;21026;-79
2022/04/25 08:50:51;;;;;;;17.80;16.10;;;;;;;;;;5035954;28;20444;-80
2022/04/25 08:53:17;;;;;;;20.47;18.43;;;;;;;;;;5009566;28;20466;-81
2022/04/25 08:55:44;;;;;;;19.10;17.27;;;;;;;;;;5026273;28;20451;-81
2022/04/25 08:58:11;;;;;;;18.37;16.60;;;;;;;;;;5004682;28;20531;-81
2022/04/25 09:00:37;;;;;;;19.00;17.10;;;;;;;;;;5019381;28;20816;-82
2022/04/25 09:03:03;;;;;;;21.03;18.07;;;;;;;;;;5021045;28;20446;-81
2022/04/25 09:05:29;;;;;;;21.80;17.30;;;;;;;;;;5027516;28;20471;-81
2022/04/25 09:07:55;;;;;;;16.53;15.13;;;;;;;;;;5024613;28;20882;-80
2022/04/25 09:10:22;;;;;;;14.67;13.60;;;;;;;;;;5025307;28;20470;-80
2022/04/25 09:12:48;;;;;;;17.73;16.17;;;;;;;;;;5022550;28;20419;-82
2022/04/25 09:15:18;;;;;;;16.83;15.20;;;;;;;;;;5017896;28;20477;-83
2022/04/25 09:17:44;;;;;;;17.17;15.53;;;;;;;;;;5018182;28;21015;-81
2022/04/25 09:20:11;;;;;;;16.67;15.17;;;;;;;;;;5026046;28;20493;-83
2022/04/25 09:22:48;;;;;;;16.03;14.53;;;;;;;;;;5008825;28;20426;-83
2022/04/25 09:25:17;;;;;;;14.77;13.37;;;;;;;;;;5016812;28;20439;-83
2022/04/25 09:27:44;;;;;;;14.40;13.27;;;;;;;;;;5019965;28;20499;-83
2022/04/25 09:30:14;;;;;;;12.83;11.93;;;;;;;;;;5021683;28;20924;-83
2022/04/25 09:32:40;;;;;;;12.83;11.67;;;;;;;;;;5023676;28;20771;-83
2022/04/25 09:35:27;;;;;;;13.87;12.67;;;;;;;;;;5026455;28;20466;-81
2022/04/25 09:37:53;;;;;;;13.83;12.43;;;;;;;;;;5022845;28;20442;-77
2022/04/25 09:40:20;;;;;;;12.63;11.50;;;;;;;;;;5014734;28;20439;-81
2022/04/25 09:42:47;;;;;;;11.50;10.57;;;;;;;;;;5014266;28;20450;-81
2022/04/25 09:45:15;;;;;;;12.93;11.73;;;;;;;;;;4673103;28;9999859;-83
2022/04/25 09:47:41;;;;;;;12.23;11.30;;;;;;;;;;5032200;28;20195;-84
2022/04/25 09:50:12;;;;;;;11.73;10.93;;;;;;;;;;5016805;28;21035;-84
2022/04/25 09:52:52;;;;;;;12.07;11.13;;;;;;;;;;5019566;28;21195;-80
2022/04/25 09:55:18;;;;;;;11.07;10.17;;;;;;;;;;5031647;28;20515;-84
2022/04/25 09:57:46;;;;;;;12.43;11.10;;;;;;;;;;5028129;28;20434;-84
2022/04/25 10:00:14;;;;;;;10.80;9.80;;;;;;;;;;5025228;28;20615;-83
2022/04/25 10:02:41;;;;;;;10.87;10.07;;;;;;;;;;5005217;28;20553;-85
2022/04/25 10:05:17;;;;;;;10.70;10.00;;;;;;;;;;5024852;28;20453;-83
2022/04/25 10:07:44;;;;;;;10.93;10.10;;;;;;;;;;5024010;28;20438;-78
2022/04/25 10:10:11;;;;;;;9.77;9.07;;;;;;;;;;5022304;28;20430;-83
2022/04/25 10:12:37;;;;;;;10.07;9.43;;;;;;;;;;5025950;28;20610;-82
2022/04/25 10:15:04;;;;;;;10.57;9.77;;;;;;;;;;5018601;28;20504;-81
2022/04/25 10:17:38;;;;;;;11.20;10.40;;;;;;;;;;5026498;28;20485;-81
2022/04/25 10:20:05;;;;;;;9.97;9.23;;;;;;;;;;5024608;28;20434;-84
2022/04/25 10:22:31;;;;;;;10.57;9.83;;;;;;;;;;5021656;28;20445;-84
2022/04/25 10:24:57;;;;;;;10.20;9.60;;;;;;;;;;5009380;28;20524;-84
2022/04/25 10:27:27;;;;;;;11.53;10.67;;;;;;;;;;5018742;28;20451;-80
2022/04/25 10:29:54;;;;;;;10.97;10.00;;;;;;;;;;5023126;28;20534;-83
2022/04/25 10:32:25;;;;;;;11.07;10.27;;;;;;;;;;5017373;28;20801;-84
2022/04/25 10:34:59;;;;;;;9.77;9.13;;;;;;;;;;5029110;28;20469;-78
2022/04/25 10:37:31;;;;;;;9.77;9.17;;;;;;;;;;5026146;28;20540;-84
2022/04/25 10:40:05;;;;;;;9.10;8.60;;;;;;;;;;5021878;28;20434;-84
2022/04/25 10:45:16;;;;;;;10.53;9.63;;;;;;;;;;5023692;28;20977;-85
2022/04/25 10:47:57;;;;;;;10.10;9.30;;;;;;;;;;5030578;28;20434;-83
2022/04/25 10:50:26;;;;;;;11.60;10.80;;;;;;;;;;5034748;28;20514;-84
2022/04/25 10:52:56;;;;;;;12.90;11.90;;;;;;;;;;5030007;28;20422;-82
2022/04/25 10:55:34;;;;;;;13.00;12.10;;;;;;;;;;5024139;28;20571;-85
2022/04/25 10:58:03;;;;;;;14.10;13.10;;;;;;;;;;5023455;28;20430;-83
2022/04/25 11:00:44;;;;;;;14.63;13.50;;;;;;;;;;5026304;28;20975;-82
2022/04/25 11:03:12;;;;;;;15.47;13.80;;;;;;;;;;5017652;28;20437;-85
2022/04/25 11:05:45;;;;;;;14.27;12.87;;;;;;;;;;5021196;28;20793;-83
2022/04/25 11:08:18;;;;;;;13.67;12.43;;;;;;;;;;5028600;28;20454;-83
2022/04/25 11:10:53;;;;;;;14.60;13.40;;;;;;;;;;5022509;28;20446;-84
2022/04/25 11:13:19;;;;;;;13.20;12.20;;;;;;;;;;5021811;28;20724;-86
2022/04/25 11:15:46;;;;;;;14.33;13.00;;;;;;;;;;5009386;28;20493;-85
2022/04/25 11:18:53;;;;;;;12.90;11.90;;;;;;;;;;5029784;28;20433;-84
2022/04/25 11:21:34;;;;;;;12.40;11.40;;;;;;;;;;4951242;28;20441;-84
2022/04/25 11:26:52;;;;;;;14.07;13.00;;;;;;;;;;5005928;28;20423;-84
2022/04/25 11:29:19;;;;;;;11.90;11.00;;;;;;;;;;5005054;28;20824;-84
2022/04/25 11:31:56;;;;;;;;;;;;;;;;;;;;;
2022/04/25 11:34:33;;;;;;;13.37;12.27;;;;;;;;;;5019541;28;20487;-84
2022/04/25 11:37:23;;;;;;;;;;;;;;;;;;;;;
2022/04/25 11:40:00;;;;;;;12.33;11.50;;;;;;;;;;4675277;28;10000426;-84
2022/04/25 11:42:26;;;;;;;12.03;11.23;;;;;;;;;;5037140;28;20194;-85
2022/04/25 11:45:04;;;;;;;13.53;12.43;;;;;;;;;;5016736;28;20447;-84
2022/04/25 11:50:35;;;;;;;11.80;11.00;;;;;;;;;;4934410;29;21046;-84
2022/04/25 11:56:13;;;;;;;12.37;11.47;;;;;;;;;;5095560;23;20501;-83
2022/04/25 11:58:45;;;;;;;12.23;11.20;;;;;;;;;;5009313;28;20957;-84
2022/04/25 12:01:14;;;;;;;11.60;10.87;;;;;;;;;;5019637;28;20434;-85
2022/04/25 12:03:40;;;;;;;15.37;11.73;;;;;;;;;;5009486;28;20434;-86
2022/04/25 12:06:11;;;;;;;12.90;12.00;;;;;;;;;;5006980;28;20445;-84
2022/04/25 12:17:14;;;;;;;15.00;13.70;;;;;;;;;;5020624;28;20507;-85
2022/04/25 12:19:56;;;;;;;13.73;12.50;;;;;;;;;;5006647;28;20433;-84
2022/04/25 12:22:28;;;;;;;15.37;13.80;;;;;;;;;;5018549;28;20427;-84
2022/04/25 12:25:10;;;;;;;14.80;13.40;;;;;;;;;;5018722;28;20500;-86
2022/04/25 12:27:41;;;;;;;14.30;13.17;;;;;;;;;;5014944;28;20509;-83
2022/04/25 12:30:08;;;;;;;13.83;12.63;;;;;;;;;;5000877;28;20871;-84
2022/04/25 12:32:37;;;;;;;13.77;12.67;;;;;;;;;;5025379;28;20454;-84
2022/04/25 12:35:04;;;;;;;13.20;12.20;;;;;;;;;;5008963;28;20484;-83
2022/04/25 12:37:39;;;;;;;12.03;11.23;;;;;;;;;;5006450;28;20450;-81
2022/04/25 12:40:06;;;;;;;12.20;10.97;;;;;;;;;;5021306;28;20836;-85
2022/04/25 12:42:51;;;;;;;11.23;10.47;;;;;;;;;;5021116;28;20434;-85
2022/04/25 12:45:18;;;;;;;10.93;10.03;;;;;;;;;;5038327;28;20967;-84
2022/04/25 12:47:45;;;;;;;9.90;9.30;;;;;;;;;;5020827;28;20440;-81
2022/04/25 12:50:11;;;;;;;11.70;9.87;;;;;;;;;;5025648;28;20504;-82
2022/04/25 12:52:50;;;;;;;10.33;9.43;;;;;;;;;;4660399;28;10000599;-83
2022/04/25 12:55:16;;;;;;;12.23;10.70;;;;;;;;;;4996846;28;20231;-84
2022/04/25 12:57:51;;;;;;;10.37;9.77;;;;;;;;;;5024172;28;20444;-85
2022/04/25 13:00:17;;;;;;;9.53;8.73;;;;;;;;;;5018381;28;20439;-84
2022/04/25 13:02:44;;;;;;;9.70;9.03;;;;;;;;;;5000042;28;20792;-84
2022/04/25 13:05:12;;;;;;;10.93;10.13;;;;;;;;;;5028288;28;20449;-83
2022/04/25 13:07:39;;;;;;;12.80;11.90;;;;;;;;;;5004567;28;20699;-84
2022/04/25 13:10:06;;;;;;;13.30;12.10;;;;;;;;;;5026000;28;20500;-84
2022/04/25 13:12:35;;;;;;;13.87;12.70;;;;;;;;;;5023378;28;20454;-84
2022/04/25 13:15:02;;;;;;;14.30;13.10;;;;;;;;;;5020018;28;20482;-84
2022/04/25 13:17:28;;;;;;;15.93;14.40;;;;;;;;;;5010011;28;20664;-83
2022/04/25 13:19:54;;;;;;;12.50;11.70;;;;;;;;;;5003193;28;20446;-85
2022/04/25 13:22:20;;;;;;;14.10;13.00;;;;;;;;;;5025932;28;20535;-83
2022/04/25 13:24:48;;;;;;;12.93;11.93;;;;;;;;;;5007586;28;20438;-84
2022/04/25 13:27:17;;;;;;;12.13;11.33;;;;;;;;;;5028462;28;20486;-86
2022/04/25 13:29:44;;;;;;;13.70;12.50;;;;;;;;;;5009315;28;20614;-84
2022/04/25 13:32:11;;;;;;;12.80;11.77;;;;;;;;;;5027635;28;20526;-84
2022/04/25 13:34:40;;;;;;;13.30;12.37;;;;;;;;;;5009016;28;20473;-84
2022/04/25 13:37:06;;;;;;;11.93;11.20;;;;;;;;;;5029177;28;20955;-85
2022/04/25 13:39:35;;;;;;;11.73;10.80;;;;;;;;;;5068808;23;20912;-87
2022/04/25 13:42:26;;;;;;;11.90;11.10;;;;;;;;;;4993274;28;20467;-89
2022/04/25 13:44:52;;;;;;;11.67;10.87;;;;;;;;;;5031420;28;20478;-86
2022/04/25 13:47:22;;;;;;;11.10;10.30;;;;;;;;;;5031017;28;20431;-78
2022/04/25 13:49:48;;;;;;;10.70;9.60;;;;;;;;;;5024431;28;20423;-89
2022/04/25 13:52:21;;;;;;;13.10;10.87;;;;;;;;;;5031234;28;20418;-89
2022/04/25 13:54:47;;;;;;;10.47;9.77;;;;;;;;;;4976766;28;20934;-79
2022/04/25 13:57:16;;;;;;;10.37;9.67;;;;;;;;;;5023293;28;20451;-81
2022/04/25 13:59:42;;;;;;;10.67;9.77;;;;;;;;;;5025442;28;20431;-83
2022/04/25 14:04:53;;;;;;;9.23;8.73;;;;;;;;;;5024704;28;20493;-83
2022/04/25 14:07:19;;;;;;;13.40;12.50;;;;;;;;;;5031479;28;20414;-83
2022/04/25 14:09:45;;;;;;;9.83;9.23;;;;;;;;;;5031597;28;20545;-82
2022/04/25 14:12:13;;;;;;;10.37;9.60;;;;;;;;;;5029840;28;20940;-85
2022/04/25 14:14:39;;;;;;;11.37;10.57;;;;;;;;;;5034849;28;20466;-79
2022/04/25 14:17:06;;;;;;;10.47;9.77;;;;;;;;;;5034910;28;20438;-82
2022/04/25 14:19:32;;;;;;;11.70;11.00;;;;;;;;;;5014559;28;20489;-88
2022/04/25 14:21:58;;;;;;;14.57;13.47;;;;;;;;;;5038037;28;20503;-81
2022/04/25 14:24:27;;;;;;;12.90;12.10;;;;;;;;;;5034208;28;20512;-89
2022/04/25 14:29:41;;;;;;;10.63;10.03;;;;;;;;;;5031859;28;20453;-88
2022/04/25 14:32:08;;;;;;;13.00;12.17;;;;;;;;;;5037547;28;20434;-85
2022/04/25 14:34:49;;;;;;;16.23;11.70;;;;;;;;;;5033152;28;20463;-88
2022/04/25 14:37:15;;;;;;;13.27;12.30;;;;;;;;;;5037505;28;20769;-81
2022/04/25 14:39:41;;;;;;;13.27;12.37;;;;;;;;;;5032349;28;20460;-84
2022/04/25 14:42:07;;;;;;;15.37;14.17;;;;;;;;;;5029476;28;20431;-80
2022/04/25 14:44:33;;;;;;;15.07;14.00;;;;;;;;;;5032484;28;20935;-83
2022/04/25 14:47:03;;;;;;;14.03;13.07;;;;;;;;;;5016980;28;20962;-86
2022/04/25 14:55:03;;;;;;;12.80;11.80;;;;;;;;;;4670836;28;10000460;-87
2022/04/25 14:57:29;;;;;;;12.43;11.53;;;;;;;;;;5026242;28;20192;-85
2022/04/25 14:59:55;;;;;;;12.03;11.23;;;;;;;;;;5018432;28;20436;-85
2022/04/25 15:02:47;;;;;;;10.43;9.83;;;;;;;;;;5013133;28;20433;-85
2022/04/25 15:05:14;;;;;;;14.13;13.10;;;;;;;;;;5003368;28;20540;-80
2022/04/25 15:07:55;;;;;;;18.27;16.70;;;;;;;;;;5011793;28;20445;-80
2022/04/25 15:10:21;;;;;;;13.20;12.20;;;;;;;;;;5005611;28;20426;-82
2022/04/25 15:12:55;;;;;;;13.07;12.17;;;;;;;;;;4994942;28;20871;-87
2022/04/25 15:15:26;;;;;;;13.60;12.37;;;;;;;;;;5016574;28;20555;-90
2022/04/25 15:17:52;;;;;;;13.73;12.80;;;;;;;;;;5002730;28;20776;-81
2022/04/25 15:20:24;;;;;;;11.30;10.50;;;;;;;;;;5014241;28;20549;-88
2022/04/25 15:22:52;;;;;;;10.57;9.97;;;;;;;;;;5028375;28;20427;-89
2022/04/25 15:25:19;;;;;;;9.73;9.10;;;;;;;;;;5008024;28;20482;-87
2022/04/25 15:27:48;;;;;;;9.23;8.67;;;;;;;;;;4998498;28;20432;-83
2022/04/25 15:33:07;;;;;;;9.37;8.73;;;;;;;;;;5019700;28;20494;-80
2022/04/25 15:35:33;;;;;;;8.60;8.20;;;;;;;;;;5011806;28;20447;-84
2022/04/25 15:37:59;;;;;;;9.43;8.83;;;;;;;;;;5011218;28;20492;-81
2022/04/25 15:40:25;;;;;;;8.97;8.37;;;;;;;;;;5013977;28;20447;-84
2022/04/25 15:42:51;;;;;;;9.60;8.80;;;;;;;;;;5007709;28;20588;-85
2022/04/25 15:45:18;;;;;;;9.40;8.80;;;;;;;;;;5005915;28;20751;-84
2022/04/25 15:47:44;;;;;;;8.10;7.70;;;;;;;;;;5011025;28;20415;-83
2022/04/25 15:50:10;;;;;;;9.30;8.80;;;;;;;;;;5012631;28;20982;-85
2022/04/25 15:52:36;;;;;;;11.03;10.33;;;;;;;;;;5021888;28;20948;-84
2022/04/25 15:57:50;;;;;;;8.27;7.87;;;;;;;;;;5021796;28;20414;-83
2022/04/25 16:00:17;;;;;;;7.60;7.20;;;;;;;;;;5021716;28;20434;-84
2022/04/25 16:02:46;;;;;;;8.20;7.43;;;;;;;;;;5005979;28;20514;-82
2022/04/25 16:05:12;;;;;;;7.80;7.50;;;;;;;;;;5005918;28;20607;-80
2022/04/25 16:07:38;;;;;;;7.47;7.17;;;;;;;;;;5009429;28;20483;-84
2022/04/25 16:10:05;;;;;;;8.10;7.60;;;;;;;;;;5018189;28;20529;-86
2022/04/25 16:12:31;;;;;;;8.23;7.70;;;;;;;;;;5024884;28;21275;-85
2022/04/25 16:14:57;;;;;;;7.50;7.13;;;;;;;;;;5028827;28;20537;-82
2022/04/25 16:17:24;;;;;;;8.57;8.07;;;;;;;;;;5011251;28;20602;-83
2022/04/25 16:19:50;;;;;;;8.13;7.73;;;;;;;;;;5008996;28;20446;-86
2022/04/25 16:22:16;;;;;;;8.60;8.10;;;;;;;;;;5028105;28;20514;-83
2022/04/25 16:24:43;;;;;;;8.60;8.20;;;;;;;;;;5003206;28;20803;-80